Time;durP1;ratioP1;P1;durP2;ratioP2;P2;SDS_P1;SDS_P2;PMS_P1;PMS_P2;Temp;Humidity;BMP_temperature;BMP_pressure;BME280_temperature;BME280_humidity;BME280_pressure;Samples;Min_cycle;Max_cycle;Signal;HPM_P1;HPM_P2
2022/07/24 00:01:39;;;;;;;2.45;0.90;;;;;;;29.06;33.52;101150.56;4900768;29;20240;-76
2022/07/24 00:04:08;;;;;;;1.25;0.80;;;;;;;29.08;33.50;101154.06;4903743;29;20060;-74
2022/07/24 00:06:37;;;;;;;2.70;0.80;;;;;;;29.10;33.33;101154.88;4909692;29;20057;-74
2022/07/24 00:09:11;;;;;;;1.80;0.75;;;;;;;29.03;33.55;101141.75;4903475;29;20060;-75
2022/07/24 00:11:47;;;;;;;1.48;1.02;;;;;;;29.15;32.38;101168.88;4902241;29;20416;-77
2022/07/24 00:14:18;;;;;;;1.05;0.80;;;;;;;28.98;33.11;101154.41;4894152;29;20053;-74
2022/07/24 00:16:47;;;;;;;2.47;0.75;;;;;;;28.92;33.90;101133.34;4895840;29;20063;-73
2022/07/24 00:19:16;;;;;;;2.90;0.88;;;;;;;29.00;34.57;101163.22;4901162;29;20068;-72
2022/07/24 00:21:45;;;;;;;2.03;0.88;;;;;;;28.85;34.85;101147.00;4904085;29;20364;-72
2022/07/24 00:24:21;;;;;;;3.72;2.17;;;;;;;28.87;34.53;101156.66;4906034;29;20062;-73
2022/07/24 00:27:00;;;;;;;1.15;0.90;;;;;;;28.85;33.66;101162.97;4905492;29;20345;-73
2022/07/24 00:29:29;;;;;;;2.90;0.93;;;;;;;28.69;35.25;101130.75;4907530;29;20067;-76
2022/07/24 00:31:58;;;;;;;0.93;0.60;;;;;;;28.64;35.07;101128.28;4907326;29;20120;-73
2022/07/24 00:34:43;;;;;;;;;;;;;;;;;;;;;
2022/07/24 00:37:12;;;;;;;2.92;1.00;;;;;;;28.53;34.73;101118.06;4907391;29;20092;-75
2022/07/24 00:39:51;;;;;;;1.17;1.08;;;;;;;28.66;34.80;101138.88;4908917;29;20053;-75
2022/07/24 00:42:21;;;;;;;1.30;0.80;;;;;;;28.73;36.00;101143.88;4908273;29;20371;-73
2022/07/24 00:45:10;;;;;;;1.70;0.98;;;;;;;28.68;34.87;101121.91;4906754;29;20116;-73
2022/07/24 00:47:39;;;;;;;3.97;0.98;;;;;;;28.75;35.21;101131.38;4906870;29;20080;-73
2022/07/24 00:50:09;;;;;;;2.40;1.20;;;;;;;28.64;36.01;101128.28;4902885;29;20061;-73
2022/07/24 00:52:42;;;;;;;0.82;0.82;;;;;;;28.65;35.92;101138.00;4906187;29;20056;-73
2022/07/24 00:55:14;;;;;;;2.65;1.15;;;;;;;28.47;35.76;101106.78;4910059;29;20060;-73
2022/07/24 00:57:49;;;;;;;4.53;0.95;;;;;;;28.48;36.02;101104.06;4904930;29;20119;-73
2022/07/24 01:00:21;;;;;;;1.63;0.80;;;;;;;28.50;34.94;101120.00;4906509;29;20131;-73
2022/07/24 01:02:51;;;;;;;3.60;1.00;;;;;;;28.48;35.01;101122.69;4902860;29;20060;-73
2022/07/24 01:05:20;;;;;;;2.10;0.93;;;;;;;28.43;35.46;101124.66;4904274;29;20064;-72
2022/07/24 01:07:49;;;;;;;1.17;0.90;;;;;;;28.29;36.17;101100.34;4906460;29;20116;-73
2022/07/24 01:10:21;;;;;;;1.42;0.90;;;;;;;28.33;35.99;101108.16;4906401;29;20052;-71
2022/07/24 01:12:52;;;;;;;1.95;1.17;;;;;;;28.31;36.28;101126.00;4905059;29;20056;-76
2022/07/24 01:15:21;;;;;;;2.10;1.20;;;;;;;28.29;36.77;101119.88;4893048;29;20061;-72
2022/07/24 01:17:57;;;;;;;3.75;0.93;;;;;;;28.27;35.93;101123.50;4896992;29;20052;-75
2022/07/24 01:20:26;;;;;;;2.80;1.00;;;;;;;28.08;35.75;101088.75;4904129;29;20044;-77
2022/07/24 01:23:04;;;;;;;2.22;0.88;;;;;;;28.06;36.59;101088.81;4906142;29;20343;-75
2022/07/24 01:25:33;;;;;;;4.10;1.00;;;;;;;28.11;37.09;101097.50;4905786;29;20048;-76
2022/07/24 01:28:07;;;;;;;1.10;1.00;;;;;;;28.25;36.50;101118.25;4903409;29;20130;-74
2022/07/24 01:33:24;;;;;;;1.17;0.80;;;;;;;28.18;35.90;101119.41;4904449;29;20080;-73
2022/07/24 01:35:53;;;;;;;2.28;0.93;;;;;;;28.07;35.95;101111.81;4908415;28;20127;-74
2022/07/24 01:38:26;;;;;;;2.35;0.93;;;;;;;28.03;36.45;101109.34;4902964;29;20087;-72
2022/07/24 01:40:57;;;;;;;2.45;1.00;;;;;;;28.04;36.57;101111.06;4899099;29;20253;-73
2022/07/24 01:43:27;;;;;;;1.80;1.20;;;;;;;27.92;37.23;101097.31;4896085;29;20072;-74
2022/07/24 01:45:58;;;;;;;2.38;0.80;;;;;;;27.84;37.25;101095.88;4900937;29;20057;-74
2022/07/24 01:48:27;;;;;;;11.10;1.02;;;;;;;27.70;37.49;101083.91;4909391;29;20076;-73
2022/07/24 01:50:56;;;;;;;2.05;0.90;;;;;;;27.76;38.21;101102.31;4899873;29;20049;-74
2022/07/24 01:53:26;;;;;;;3.25;0.90;;;;;;;27.63;37.67;101079.75;4901848;29;20640;-76
2022/07/24 01:55:55;;;;;;;5.25;1.20;;;;;;;27.64;37.91;101094.75;4910342;29;20063;-74
2022/07/24 01:58:27;;;;;;;1.70;1.08;;;;;;;27.56;39.28;101091.53;4911948;29;20092;-70
2022/07/24 02:00:56;;;;;;;2.33;0.95;;;;;;;27.56;38.34;101096.84;4904602;29;20077;-71
2022/07/24 02:03:25;;;;;;;1.65;0.90;;;;;;;27.57;38.40;101111.84;4906120;29;20056;-71
2022/07/24 02:05:54;;;;;;;1.40;0.95;;;;;;;27.49;38.28;101117.47;4904905;29;20343;-71
2022/07/24 02:08:22;;;;;;;1.83;1.15;;;;;;;27.40;39.66;101104.50;4904031;29;20088;-70
2022/07/24 02:10:54;;;;;;;2.17;1.00;;;;;;;27.41;39.66;101115.97;4899838;29;20088;-70
2022/07/24 02:13:25;;;;;;;1.65;0.90;;;;;;;27.30;38.94;101111.91;4903789;29;20048;-70
2022/07/24 02:15:54;;;;;;;1.77;1.10;;;;;;;27.40;39.40;101119.53;4904596;29;20063;-72
2022/07/24 02:18:26;;;;;;;1.52;1.00;;;;;;;27.27;40.01;101106.69;4904456;29;20351;-70
2022/07/24 02:21:12;;;;;;;2.33;1.00;;;;;;;27.31;40.29;101116.31;4903899;29;20337;-72
2022/07/24 02:23:41;;;;;;;1.92;0.90;;;;;;;27.24;40.06;101114.78;4897690;29;20056;-72
2022/07/24 02:26:19;;;;;;;1.27;1.08;;;;;;;27.21;39.51;101109.56;4904464;29;20112;-73
2022/07/24 02:28:48;;;;;;;2.25;1.10;;;;;;;27.23;39.36;101123.66;4902185;29;20124;-74
2022/07/24 02:34:37;;;;;;;2.75;1.10;;;;;;;27.10;40.40;101106.38;4869086;29;20083;-76
2022/07/24 02:37:44;;;;;;;1.20;0.98;;;;;;;26.98;40.42;101122.72;4901317;28;20067;-76
2022/07/24 02:40:17;;;;;;;2.13;0.95;;;;;;;26.72;40.72;101088.13;4906834;29;20067;-73
2022/07/24 02:43:12;;;;;;;2.38;0.90;;;;;;;26.83;40.78;101124.97;4906163;29;20364;-73
2022/07/24 02:45:44;;;;;;;1.52;1.13;;;;;;;26.79;41.44;101122.47;4903473;29;20053;-75
2022/07/24 02:48:21;;;;;;;;;;;;;;;26.73;41.73;101119.09;4898393;29;20061;-75
2022/07/24 02:50:50;;;;;;;2.72;1.13;;;;;;;26.50;42.16;101097.66;4899680;29;19926;-75
2022/07/24 02:53:18;;;;;;;3.10;1.13;;;;;;;26.42;41.45;101092.59;4901387;29;20080;-75
2022/07/24 02:55:50;;;;;;;1.88;1.08;;;;;;;26.46;41.65;101114.63;4902074;29;20326;-76
2022/07/24 02:58:20;;;;;;;1.23;0.82;;;;;;;26.28;41.67;101100.13;4894891;29;20060;-77
2022/07/24 03:00:49;;;;;;;1.35;1.05;;;;;;;26.34;41.10;101115.84;4899627;29;20056;-74
2022/07/24 03:03:18;;;;;;;1.95;1.15;;;;;;;26.18;41.83;101096.00;4897786;29;20067;-75
2022/07/24 03:05:47;;;;;;;1.20;1.00;;;;;;;26.18;42.19;101111.91;4900963;29;20188;-76
2022/07/24 03:08:15;;;;;;;0.95;0.80;;;;;;;26.15;41.75;101120.81;4910338;29;20064;-77
2022/07/24 03:10:46;;;;;;;1.48;0.90;;;;;;;25.97;41.50;101108.97;4898701;29;20426;-77
2022/07/24 03:13:15;;;;;;;2.55;0.90;;;;;;;25.94;41.56;101114.38;4902495;29;20049;-76
2022/07/24 03:15:50;;;;;;;2.33;0.93;;;;;;;25.82;41.60;101112.91;4898060;29;20096;-77
2022/07/24 03:18:22;;;;;;;3.75;0.95;;;;;;;25.71;42.16;101107.03;4898888;29;20049;-75
2022/07/24 03:20:51;;;;;;;2.38;0.88;;;;;;;25.65;42.42;101104.53;4902330;29;20064;-75
2022/07/24 03:23:26;;;;;;;1.40;1.00;;;;;;;25.67;42.55;101122.13;4897369;29;20061;-76
2022/07/24 03:26:22;;;;;;;1.60;1.00;;;;;;;25.53;42.75;101121.66;4904460;29;20123;-73
2022/07/24 03:29:03;;;;;;;1.02;0.80;;;;;;;25.50;42.72;101135.84;4896679;29;20072;-75
2022/07/24 03:31:34;;;;;;;1.67;0.90;;;;;;;25.29;43.68;101113.44;4900473;29;20245;-76
2022/07/24 03:34:06;;;;;;;1.38;1.00;;;;;;;25.23;43.93;101129.50;4898441;29;20059;-79
2022/07/24 03:36:34;;;;;;;2.10;0.90;;;;;;;25.09;44.47;101131.59;4900574;29;20239;-76
2022/07/24 03:39:04;;;;;;;1.30;0.80;;;;;;;24.93;44.26;101123.16;4898205;29;20145;-75
2022/07/24 03:41:32;;;;;;;2.10;0.93;;;;;;;24.76;44.37;101107.69;4902303;29;20060;-73
2022/07/24 03:44:01;;;;;;;3.15;0.90;;;;;;;24.79;45.02;101133.22;4901042;29;20115;-73
2022/07/24 03:46:30;;;;;;;2.65;0.95;;;;;;;24.74;45.17;101146.56;4891105;29;20446;-72
2022/07/24 03:49:08;;;;;;;2.03;0.90;;;;;;;24.60;45.38;101143.31;4899641;29;20053;-74
2022/07/24 03:51:46;;;;;;;3.20;0.95;;;;;;;24.37;45.10;101123.53;4900906;29;20067;-73
2022/07/24 03:54:15;;;;;;;3.33;0.77;;;;;;;24.44;45.30;101158.63;4895153;29;20099;-74
2022/07/24 03:56:43;;;;;;;6.53;1.10;;;;;;;24.35;45.77;101158.81;4899183;29;20076;-75
2022/07/24 03:59:15;;;;;;;2.10;0.90;;;;;;;24.26;45.57;101157.28;4900649;29;20052;-74
2022/07/24 04:01:50;;;;;;;2.92;1.05;;;;;;;24.17;46.21;101160.97;4908982;29;20401;-73
2022/07/24 04:04:20;;;;;;;2.28;1.17;;;;;;;23.90;46.65;101135.09;4901160;29;20051;-74
2022/07/24 04:06:49;;;;;;;2.55;1.00;;;;;;;23.98;46.48;101164.88;4902230;29;20083;-72
2022/07/24 04:09:20;;;;;;;2.47;1.40;;;;;;;23.72;46.88;101149.50;4900702;29;20061;-73
2022/07/24 04:11:49;;;;;;;1.70;1.00;;;;;;;23.70;47.57;101167.13;4901377;29;20080;-72
2022/07/24 04:14:18;;;;;;;2.72;1.08;;;;;;;23.54;47.65;101167.41;4903789;29;20049;-72
2022/07/24 04:16:47;;;;;;;1.15;0.95;;;;;;;23.37;47.55;101149.22;4908980;29;20048;-73
2022/07/24 04:19:16;;;;;;;3.05;1.15;;;;;;;23.48;47.66;101178.09;4904219;29;20112;-72
2022/07/24 04:21:46;;;;;;;1.58;0.75;;;;;;;23.44;48.27;101186.09;4904708;29;20081;-73
2022/07/24 04:24:18;;;;;;;1.63;0.70;;;;;;;23.35;48.06;101184.47;4902723;29;20248;-73
2022/07/24 04:26:47;;;;;;;3.15;0.90;;;;;;;23.23;48.25;101184.66;4901432;29;20065;-72
2022/07/24 04:29:19;;;;;;;2.55;0.95;;;;;;;23.19;48.52;101187.38;4903962;29;20055;-72
2022/07/24 04:32:06;;;;;;;1.15;0.60;;;;;;;23.01;48.40;101179.72;4906708;29;20048;-72
2022/07/24 04:34:34;;;;;;;1.63;1.00;;;;;;;22.86;48.42;101177.28;4913923;29;20064;-74
2022/07/24 04:37:06;;;;;;;4.03;0.90;;;;;;;22.89;49.02;101196.59;4906779;28;20091;-71
2022/07/24 04:39:35;;;;;;;1.27;0.65;;;;;;;22.73;49.14;101180.09;4903010;29;20060;-73
2022/07/24 04:42:05;;;;;;;2.35;1.08;;;;;;;22.64;49.81;101185.50;4899746;29;20060;-74
2022/07/24 04:44:41;;;;;;;1.65;0.90;;;;;;;22.62;50.52;101203.13;4903180;29;20060;-72
2022/07/24 04:47:10;;;;;;;2.08;1.00;;;;;;;22.53;50.14;101198.81;4901970;29;20108;-72
2022/07/24 04:49:40;;;;;;;4.32;0.63;;;;;;;22.30;49.78;101175.41;4900404;29;20044;-73
2022/07/24 04:52:10;;;;;;;2.00;0.90;;;;;;;22.42;50.13;101211.28;4899685;29;20093;-72
2022/07/24 04:54:41;;;;;;;2.53;0.80;;;;;;;22.17;51.14;101177.28;4904078;29;20412;-73
2022/07/24 04:57:10;;;;;;;4.43;1.00;;;;;;;22.30;51.01;101212.28;4902247;29;20049;-74
2022/07/24 04:59:44;;;;;;;2.97;0.70;;;;;;;22.14;50.91;101185.22;4902478;29;20048;-74
2022/07/24 05:02:13;;;;;;;1.23;0.90;;;;;;;22.16;50.96;101206.28;4908893;29;20052;-72
2022/07/24 05:04:50;;;;;;;2.55;0.80;;;;;;;22.10;50.93;101211.63;4906271;29;20057;-71
2022/07/24 05:07:24;;;;;;;1.63;0.77;;;;;;;22.07;53.18;101211.66;4903086;29;20056;-71
2022/07/24 05:09:53;;;;;;;1.95;0.73;;;;;;;21.92;52.67;101199.50;4899606;29;20075;-71
2022/07/24 05:15:16;;;;;;;0.70;0.70;;;;;;;21.75;52.78;101197.91;4892276;29;20053;-71
2022/07/24 05:17:45;;;;;;;0.90;0.65;;;;;;;21.66;52.89;101186.59;4905122;29;20071;-72
2022/07/24 05:20:14;;;;;;;3.00;0.98;;;;;;;21.43;52.58;101166.63;4901437;29;20057;-74
2022/07/24 05:22:44;;;;;;;2.08;0.60;;;;;;;21.35;54.12;101160.53;4903333;29;20127;-72
2022/07/24 05:25:16;;;;;;;1.35;0.85;;;;;;;21.39;54.04;101179.78;4907569;29;20116;-72
2022/07/24 05:27:48;;;;;;;4.15;0.98;;;;;;;21.49;53.74;101202.56;4905323;29;20053;-70
2022/07/24 05:30:19;;;;;;;1.23;0.88;;;;;;;21.37;54.30;101189.47;4907524;29;20461;-71
2022/07/24 05:32:48;;;;;;;1.98;0.90;;;;;;;21.27;57.20;101179.00;4907569;29;20051;-72
2022/07/24 05:35:18;;;;;;;3.28;1.33;;;;;;;21.18;56.13;101183.47;4922500;29;20056;-71
2022/07/24 05:37:48;;;;;;;1.15;0.63;;;;;;;21.19;55.71;101196.63;4919206;28;20064;-74
2022/07/24 05:40:17;;;;;;;1.75;0.73;;;;;;;21.21;55.90;101193.97;4901176;29;20361;-71
2022/07/24 05:42:46;;;;;;;3.03;0.90;;;;;;;21.04;55.42;101171.28;4901222;29;20087;-72
2022/07/24 05:45:15;;;;;;;4.65;1.00;;;;;;;21.21;55.29;101202.75;4904796;29;20127;-71
2022/07/24 05:47:44;;;;;;;1.80;0.80;;;;;;;21.14;55.18;101190.50;4898906;29;20080;-71
2022/07/24 05:50:15;;;;;;;1.88;0.70;;;;;;;21.27;54.99;101204.44;4903070;29;20088;-70
2022/07/24 05:52:44;;;;;;;0.93;0.80;;;;;;;21.20;55.18;101192.22;4907594;29;20048;-71
2022/07/24 05:55:14;;;;;;;1.30;0.88;;;;;;;21.17;55.59;101179.09;4905056;29;20093;-72
2022/07/24 05:57:43;;;;;;;2.97;1.08;;;;;;;21.17;56.69;101187.00;4900997;29;20119;-73
2022/07/24 06:00:12;;;;;;;1.77;1.00;;;;;;;21.12;56.57;101177.38;4894493;29;20474;-71
2022/07/24 06:02:41;;;;;;;2.35;0.95;;;;;;;21.25;56.00;101209.72;4896272;29;20195;-71
2022/07/24 06:05:10;;;;;;;3.45;1.00;;;;;;;21.18;55.68;101202.75;4899444;29;20244;-71
2022/07/24 06:07:41;;;;;;;3.33;0.88;;;;;;;21.07;55.62;101192.31;4905688;29;20076;-72
2022/07/24 06:10:10;;;;;;;2.58;1.00;;;;;;;21.00;56.17;101180.06;4902777;29;20094;-72
2022/07/24 06:12:41;;;;;;;3.00;1.05;;;;;;;21.11;56.74;101199.28;4896282;29;20288;-71
2022/07/24 06:15:11;;;;;;;2.03;0.93;;;;;;;21.10;56.46;101196.69;4905227;29;20306;-72
2022/07/24 06:17:39;;;;;;;2.30;1.00;;;;;;;21.07;58.51;101192.31;4899761;29;20052;-73
2022/07/24 06:20:18;;;;;;;1.55;0.80;;;;;;;21.01;57.88;101195.00;4906992;29;20108;-72
2022/07/24 06:22:59;;;;;;;2.50;0.82;;;;;;;20.90;57.56;101178.41;4904535;29;20055;-72
2022/07/24 06:25:28;;;;;;;3.03;0.90;;;;;;;20.95;57.71;101187.13;4905675;29;20112;-71
2022/07/24 06:27:58;;;;;;;1.70;0.80;;;;;;;20.81;58.39;101174.06;4905351;29;20048;-72
2022/07/24 06:30:39;;;;;;;1.48;0.90;;;;;;;20.88;58.77;101196.81;4905826;29;20088;-71
2022/07/24 06:33:10;;;;;;;1.92;1.08;;;;;;;20.84;58.19;101191.56;4904451;29;20052;-72
2022/07/24 06:35:41;;;;;;;2.78;1.20;;;;;;;20.73;59.22;101174.97;4905063;29;20056;-71
2022/07/24 06:38:23;;;;;;;2.28;0.90;;;;;;;20.79;58.65;101190.75;4905397;28;20069;-71
2022/07/24 06:40:52;;;;;;;3.03;1.25;;;;;;;20.61;58.18;101163.66;4902184;29;20053;-71
2022/07/24 06:43:29;;;;;;;1.92;0.90;;;;;;;20.57;58.28;101154.06;4898392;29;20116;-71
2022/07/24 06:45:58;;;;;;;1.85;0.88;;;;;;;20.69;59.38;101190.78;4900968;29;20083;-73
2022/07/24 06:48:31;;;;;;;1.75;0.90;;;;;;;20.54;60.97;101172.44;4903589;29;20060;-70
2022/07/24 06:51:03;;;;;;;1.77;0.90;;;;;;;20.50;59.67;101175.94;4902288;29;20036;-71
2022/07/24 06:53:35;;;;;;;1.10;0.90;;;;;;;20.48;58.82;101175.09;4904944;29;20080;-71
2022/07/24 06:56:04;;;;;;;2.03;0.90;;;;;;;20.53;58.29;101182.97;4901631;29;20044;-70
2022/07/24 06:58:34;;;;;;;1.75;0.90;;;;;;;20.49;58.08;101188.22;4904470;29;20052;-70
2022/07/24 07:01:05;;;;;;;1.63;1.00;;;;;;;20.50;58.55;101194.34;4904574;29;20052;-70
2022/07/24 07:03:42;;;;;;;1.23;0.90;;;;;;;20.52;58.40;101200.47;4902869;29;20104;-71
2022/07/24 07:06:30;;;;;;;2.95;1.10;;;;;;;20.46;58.67;101192.63;4900399;29;20079;-72
2022/07/24 07:09:01;;;;;;;1.45;0.88;;;;;;;20.45;58.61;101198.75;4899094;29;20065;-71
2022/07/24 07:11:36;;;;;;;3.30;1.20;;;;;;;20.22;58.94;101168.19;4903799;29;20052;-71
2022/07/24 07:14:14;;;;;;;1.45;1.23;;;;;;;20.33;59.01;101189.16;4903497;29;20044;-71
2022/07/24 07:16:43;;;;;;;2.30;1.10;;;;;;;20.21;59.54;101182.22;4904628;29;20063;-71
2022/07/24 07:19:23;;;;;;;2.30;1.10;;;;;;;20.18;59.92;101186.59;4903388;29;20064;-71
2022/07/24 07:22:04;;;;;;;2.30;1.33;;;;;;;20.23;59.91;101192.72;4904565;29;20056;-71
2022/07/24 07:24:34;;;;;;;4.07;1.38;;;;;;;20.14;59.65;101185.75;4896582;29;20345;-71
2022/07/24 07:27:05;;;;;;;2.08;1.10;;;;;;;20.13;59.96;101197.09;4905758;29;20048;-72
2022/07/24 07:29:36;;;;;;;2.45;1.20;;;;;;;19.98;61.46;101170.91;4904303;29;20044;-71
2022/07/24 07:32:08;;;;;;;1.70;0.95;;;;;;;19.97;62.11;101190.16;4903829;29;20048;-72
2022/07/24 07:34:38;;;;;;;1.65;1.10;;;;;;;19.72;62.22;101171.81;4909246;29;20154;-71
2022/07/24 07:37:12;;;;;;;1.27;0.85;;;;;;;19.71;62.71;101185.81;4909496;28;20072;-71
2022/07/24 07:39:45;;;;;;;2.35;1.10;;;;;;;19.69;62.37;101187.56;4903121;29;20048;-71
2022/07/24 07:42:16;;;;;;;1.95;1.30;;;;;;;19.66;62.77;101198.06;4899652;29;20057;-71
2022/07/24 07:44:51;;;;;;;2.47;1.30;;;;;;;19.56;64.10;101177.94;4901828;29;20131;-71
2022/07/24 07:47:22;;;;;;;1.70;1.23;;;;;;;19.54;64.03;101177.06;4901741;29;20111;-71
2022/07/24 07:49:56;;;;;;;1.23;0.98;;;;;;;19.55;64.08;101168.31;4901912;29;20060;-71
2022/07/24 07:52:33;;;;;;;1.38;1.00;;;;;;;19.43;63.85;101153.47;4901828;29;20037;-71
2022/07/24 07:55:06;;;;;;;2.65;1.17;;;;;;;19.49;63.00;101166.56;4902453;29;20656;-71
2022/07/24 07:57:41;;;;;;;2.33;1.17;;;;;;;19.56;63.48;101186.69;4906042;29;20051;-71
2022/07/24 08:00:14;;;;;;;2.85;1.48;;;;;;;19.56;63.04;101189.31;4901268;29;20051;-71
2022/07/24 08:02:42;;;;;;;1.75;1.10;;;;;;;19.48;63.08;101174.44;4900983;29;20269;-71
2022/07/24 08:05:13;;;;;;;1.20;0.90;;;;;;;19.43;62.58;101170.06;4901518;29;20139;-71
2022/07/24 08:07:54;;;;;;;4.30;1.55;;;;;;;19.48;63.13;101192.81;4904876;29;20045;-71
2022/07/24 08:10:23;;;;;;;1.75;1.10;;;;;;;19.49;63.55;101189.31;4896951;29;20048;-71
2022/07/24 08:13:05;;;;;;;2.25;1.00;;;;;;;19.38;63.30;101182.31;4894618;29;20061;-71
2022/07/24 08:15:41;;;;;;;2.22;1.20;;;;;;;19.29;63.14;101165.69;4895652;29;20103;-71
2022/07/24 08:18:10;;;;;;;1.85;1.20;;;;;;;19.29;63.13;101168.31;4901125;29;20330;-71
2022/07/24 08:20:45;;;;;;;2.97;1.13;;;;;;;19.33;63.95;101177.94;4906252;29;20326;-71
2022/07/24 08:23:34;;;;;;;2.60;1.20;;;;;;;19.28;63.90;101175.31;4901491;29;20349;-70
2022/07/24 08:26:07;;;;;;;1.75;1.20;;;;;;;19.30;63.87;101189.31;4903190;29;20044;-70
2022/07/24 08:28:42;;;;;;;4.15;1.23;;;;;;;19.31;64.06;101196.31;4909703;29;20222;-71
2022/07/24 08:31:14;;;;;;;1.63;1.00;;;;;;;19.18;64.01;101184.06;4898300;29;20097;-71
2022/07/24 08:33:47;;;;;;;2.15;1.25;;;;;;;19.24;64.22;101205.03;4903551;29;20064;-71
2022/07/24 08:36:16;;;;;;;;;;;;;;;19.19;64.38;101202.41;4899606;29;20056;-70
2022/07/24 08:38:58;;;;;;;1.83;1.42;;;;;;;19.07;64.55;101183.19;4885235;29;19928;-70
2022/07/24 08:41:38;;;;;;;3.47;1.40;;;;;;;19.01;64.46;101182.31;4885797;29;20051;-71
2022/07/24 08:44:11;;;;;;;2.17;1.20;;;;;;;19.08;64.75;101193.69;4885244;29;20052;-70
2022/07/24 08:46:54;;;;;;;1.73;1.17;;;;;;;19.03;65.15;101193.69;4895043;29;20077;-70
2022/07/24 08:49:30;;;;;;;2.55;1.00;;;;;;;18.88;65.75;101180.53;4887508;29;20101;-70
2022/07/24 08:52:08;;;;;;;2.75;1.10;;;;;;;18.93;65.16;101194.50;4888754;29;20063;-70
2022/07/24 08:54:47;;;;;;;3.70;1.45;;;;;;;18.75;64.88;101173.47;4886047;29;20105;-70
2022/07/24 08:57:18;;;;;;;1.27;1.08;;;;;;;18.83;65.48;101188.38;4888988;29;20057;-70
2022/07/24 08:59:47;;;;;;;2.03;1.13;;;;;;;18.78;66.25;101184.88;4889942;29;20057;-70
2022/07/24 09:02:25;;;;;;;2.60;1.40;;;;;;;18.63;66.18;101166.44;4889108;29;20072;-70
2022/07/24 09:05:05;;;;;;;2.35;1.00;;;;;;;18.65;66.99;101182.19;4888817;29;20079;-71
2022/07/24 09:07:36;;;;;;;3.05;1.20;;;;;;;18.53;69.18;101189.13;4889040;29;20109;-70
2022/07/24 09:10:15;;;;;;;2.17;1.30;;;;;;;18.45;69.10;101196.06;4885052;29;20065;-72
2022/07/24 09:12:49;;;;;;;2.58;1.27;;;;;;;18.26;68.93;101173.31;4885947;29;20052;-72
2022/07/24 09:15:26;;;;;;;1.95;1.20;;;;;;;18.24;69.75;101185.50;4888967;29;20056;-71
2022/07/24 09:17:58;;;;;;;2.95;1.45;;;;;;;18.16;69.26;101186.34;4889022;29;20044;-72
2022/07/24 09:20:30;;;;;;;2.47;1.35;;;;;;;18.08;69.34;101180.19;4890178;29;20055;-72
2022/07/24 09:23:00;;;;;;;2.17;1.42;;;;;;;18.00;70.12;101187.13;4873975;29;20069;-71
2022/07/24 09:25:40;;;;;;;2.50;1.60;;;;;;;17.85;69.66;101169.59;4888661;29;20067;-71
2022/07/24 09:28:26;;;;;;;3.28;1.50;;;;;;;17.77;70.21;101160.75;4887151;29;20060;-72
2022/07/24 09:31:06;;;;;;;2.75;1.30;;;;;;;17.79;70.50;101175.59;4886655;29;20049;-71
2022/07/24 09:33:44;;;;;;;3.47;1.10;;;;;;;17.64;70.80;101153.69;4879912;29;20056;-72
2022/07/24 09:36:19;;;;;;;2.55;1.30;;;;;;;17.72;72.12;101181.66;4885400;29;20053;-71
2022/07/24 09:39:03;;;;;;;2.40;1.50;;;;;;;17.70;72.29;101190.38;4903903;28;20061;-71
2022/07/24 09:41:52;;;;;;;1.67;1.08;;;;;;;17.53;72.09;101167.59;4895349;29;20048;-71
2022/07/24 09:44:26;;;;;;;1.95;1.30;;;;;;;17.44;72.41;101153.56;4899172;29;20412;-71
2022/07/24 09:47:09;;;;;;;4.05;1.50;;;;;;;17.50;72.24;101169.28;4902931;29;20068;-70
2022/07/24 09:49:41;;;;;;;1.48;1.10;;;;;;;17.44;72.24;101169.25;4898240;29;20110;-71
2022/07/24 09:52:19;;;;;;;3.50;1.58;;;;;;;17.44;72.06;101175.38;4897101;29;20044;-72
2022/07/24 09:54:58;;;;;;;2.45;1.30;;;;;;;17.41;71.99;101169.22;4907776;29;20100;-72
2022/07/24 09:57:28;;;;;;;2.83;1.70;;;;;;;17.45;72.68;101179.72;4904428;29;20151;-71
2022/07/24 10:00:04;;;;;;;1.70;1.33;;;;;;;17.44;73.37;101184.97;4904366;29;20057;-72
2022/07/24 10:02:34;;;;;;;1.80;1.33;;;;;;;17.33;72.85;101177.88;4902472;29;20059;-71
2022/07/24 10:05:28;;;;;;;1.58;1.10;;;;;;;17.22;73.30;101171.69;4901692;29;20132;-71
2022/07/24 10:08:16;;;;;;;6.07;1.30;;;;;;;17.19;73.88;101179.50;4901995;29;20147;-72
2022/07/24 10:10:46;;;;;;;2.97;1.30;;;;;;;17.18;74.56;101190.84;4905246;29;20041;-71
2022/07/24 10:13:15;;;;;;;1.83;1.55;;;;;;;17.02;74.18;101170.63;4908844;29;20057;-72
2022/07/24 10:16:03;;;;;;;3.65;1.52;;;;;;;17.00;74.10;101174.97;4903604;29;20060;-71
2022/07/24 10:18:43;;;;;;;2.42;1.38;;;;;;;16.95;74.29;101174.94;4905588;29;20048;-72
2022/07/24 10:21:35;;;;;;;4.43;1.42;;;;;;;16.99;74.48;101176.69;4906121;29;20049;-72
2022/07/24 10:24:42;;;;;;;3.00;1.83;;;;;;;16.91;73.59;101166.19;4899723;29;20052;-70
2022/07/24 10:27:26;;;;;;;1.65;1.30;;;;;;;16.99;74.30;101178.44;4902205;29;20052;-71
2022/07/24 10:29:58;;;;;;;1.77;1.33;;;;;;;17.01;75.16;101179.34;4900821;29;20045;-71
2022/07/24 10:32:35;;;;;;;2.97;1.52;;;;;;;17.02;75.17;101187.22;4900285;29;20294;-70
2022/07/24 10:35:14;;;;;;;4.05;1.40;;;;;;;17.06;74.59;101198.56;4903942;29;20036;-70
2022/07/24 10:38:00;;;;;;;1.25;1.15;;;;;;;17.08;74.77;101204.69;4904221;28;20057;-70
2022/07/24 10:40:41;;;;;;;2.55;1.60;;;;;;;17.03;74.48;101193.31;4906558;29;20059;-69
2022/07/24 10:43:17;;;;;;;3.30;1.20;;;;;;;16.95;74.98;101183.66;4902188;29;20048;-70
2022/07/24 10:46:09;;;;;;;2.53;1.33;;;;;;;17.00;75.06;101193.28;4903023;29;20045;-70
2022/07/24 10:48:39;;;;;;;3.17;1.30;;;;;;;16.91;75.08;101179.25;4904536;29;20052;-70
2022/07/24 10:51:22;;;;;;;1.80;1.42;;;;;;;17.00;74.68;101193.28;4900770;29;20052;-70
2022/07/24 10:54:19;;;;;;;1.98;1.35;;;;;;;17.03;74.97;101190.69;4900234;29;20306;-70
2022/07/24 10:56:56;;;;;;;2.60;1.85;;;;;;;17.05;75.40;101194.19;4908615;29;20048;-69
2022/07/24 10:59:35;;;;;;;2.03;1.48;;;;;;;16.94;75.26;101168.81;4903999;29;20067;-69
2022/07/24 11:02:39;;;;;;;2.42;1.52;;;;;;;17.07;75.42;101193.34;4904987;29;20262;-70
2022/07/24 11:05:50;;;;;;;2.00;1.50;;;;;;;17.02;75.78;101194.16;4905283;29;20045;-70
2022/07/24 11:08:39;;;;;;;1.55;1.45;;;;;;;17.01;76.24;101197.63;4899560;29;20056;-70
2022/07/24 11:11:34;;;;;;;2.88;1.50;;;;;;;17.00;75.43;101196.78;4897137;29;20132;-70
2022/07/24 11:14:03;;;;;;;1.52;1.33;;;;;;;16.84;75.55;101177.44;4897131;29;20089;-70
2022/07/24 11:16:36;;;;;;;3.20;1.65;;;;;;;16.96;75.53;101195.84;4901122;29;20049;-70
2022/07/24 11:19:43;;;;;;;2.08;1.23;;;;;;;16.95;75.66;101201.94;4903502;29;20054;-70
2022/07/24 11:22:36;;;;;;;4.03;1.65;;;;;;;16.94;76.17;101199.31;4903529;29;20364;-71
2022/07/24 11:25:23;;;;;;;2.42;1.30;;;;;;;16.81;76.75;101182.59;4901593;29;20080;-71
2022/07/24 11:27:59;;;;;;;1.65;1.40;;;;;;;16.88;76.49;101200.13;4905846;29;20087;-71
2022/07/24 11:30:42;;;;;;;2.60;1.50;;;;;;;16.77;76.61;101172.97;4899202;29;20108;-71
2022/07/24 11:33:19;;;;;;;2.92;1.40;;;;;;;16.74;76.32;101176.44;4900519;29;20123;-71
2022/07/24 11:35:48;;;;;;;2.17;1.48;;;;;;;16.75;76.25;101174.69;4893333;29;20045;-71
2022/07/24 11:38:30;;;;;;;2.05;1.40;;;;;;;16.84;75.94;101190.50;4900646;28;20305;-71
2022/07/24 11:41:07;;;;;;;2.33;1.48;;;;;;;16.74;75.49;101181.66;4902932;29;20108;-70
2022/07/24 11:43:50;;;;;;;2.50;1.58;;;;;;;16.74;75.86;101183.38;4898116;29;20123;-70
2022/07/24 11:46:35;;;;;;;3.00;1.80;;;;;;;16.63;76.61;101171.91;4894509;29;20112;-70
2022/07/24 11:49:11;;;;;;;2.58;1.40;;;;;;;16.78;77.16;101200.84;4905766;29;20075;-71
2022/07/24 11:51:52;;;;;;;2.28;1.20;;;;;;;16.68;76.77;101184.19;4905417;29;20325;-71
2022/07/24 11:54:26;;;;;;;2.80;1.67;;;;;;;16.66;76.38;101182.44;4900890;29;20088;-72
2022/07/24 11:56:56;;;;;;;3.00;1.52;;;;;;;16.66;77.05;101195.50;4896364;29;20053;-71
2022/07/24 11:59:38;;;;;;;2.63;1.42;;;;;;;16.65;77.01;101201.56;4900460;29;20337;-71
2022/07/24 12:02:09;;;;;;;1.63;1.33;;;;;;;16.55;76.99;101204.06;4895400;29;20049;-71
2022/07/24 12:04:47;;;;;;;3.80;1.87;;;;;;;16.55;76.86;101208.41;4903507;29;20056;-71
2022/07/24 12:07:37;;;;;;;2.20;1.40;;;;;;;16.43;77.13;101190.00;4904003;29;20339;-71
2022/07/24 12:10:11;;;;;;;2.85;1.42;;;;;;;16.43;77.14;101190.88;4890796;29;20052;-71